Time;durP1;ratioP1;P1;durP2;ratioP2;P2;SDS_P1;SDS_P2;PMS_P1;PMS_P2;Temp;Humidity;BMP_temperature;BMP_pressure;BME280_temperature;BME280_humidity;BME280_pressure;Samples;Min_cycle;Max_cycle;Signal;HPM_P1;HPM_P2
2023/08/22 00:00:58;;;;;;;8.25;3.80;;;;;;;22.41;73.34;102225.94;5051463;28;20031;-43
2023/08/22 00:03:23;;;;;;;6.18;3.67;;;;;;;22.46;72.79;102221.41;5050539;28;20037;-43
2023/08/22 00:05:49;;;;;;;6.75;3.60;;;;;;;22.43;72.81;102213.50;5050412;28;20037;-50
2023/08/22 00:08:14;;;;;;;8.20;3.63;;;;;;;22.44;73.17;102212.63;5050572;28;20033;-46
2023/08/22 00:10:40;;;;;;;5.50;3.55;;;;;;;22.44;73.24;102209.06;5050660;28;20037;-43
2023/08/22 00:13:06;;;;;;;6.47;3.38;;;;;;;22.41;73.07;102203.78;5050513;28;20035;-49
2023/08/22 00:15:32;;;;;;;7.10;3.55;;;;;;;22.42;73.42;102197.59;5050024;28;20132;-47
2023/08/22 00:17:57;;;;;;;5.53;3.10;;;;;;;22.40;73.34;102197.59;5050663;28;20040;-43
2023/08/22 00:20:23;;;;;;;7.38;3.60;;;;;;;22.41;72.92;102194.03;5049768;28;20039;-45
2023/08/22 00:22:49;;;;;;;5.43;3.17;;;;;;;22.44;72.80;102191.34;5050857;28;20044;-44
2023/08/22 00:25:14;;;;;;;5.97;3.08;;;;;;;22.41;72.78;102203.78;5049480;28;20041;-44
2023/08/22 00:27:40;;;;;;;7.22;3.30;;;;;;;22.36;73.09;102206.53;5050372;28;20028;-48
2023/08/22 00:30:07;;;;;;;5.22;3.33;;;;;;;22.27;72.79;102196.00;5049900;28;20455;-44
2023/08/22 00:32:32;;;;;;;6.93;3.50;;;;;;;22.23;72.95;102192.53;5050241;28;20041;-46
2023/08/22 00:34:58;;;;;;;6.32;3.30;;;;;;;22.22;72.61;102182.81;5049717;28;20483;-44
2023/08/22 00:37:23;;;;;;;6.90;3.40;;;;;;;22.19;72.70;102179.31;5049856;28;20043;-45
2023/08/22 00:39:49;;;;;;;5.28;3.05;;;;;;;22.14;73.05;102183.81;5050103;28;20029;-46
2023/08/22 00:42:14;;;;;;;7.13;3.40;;;;;;;22.09;72.66;102175.91;5048601;28;20037;-45
2023/08/22 00:44:40;;;;;;;6.97;3.20;;;;;;;22.03;73.09;102181.28;5049556;28;20025;-44
2023/08/22 00:47:06;;;;;;;7.18;3.17;;;;;;;22.03;72.91;102183.06;5049752;28;20033;-43
2023/08/22 00:49:32;;;;;;;6.10;3.38;;;;;;;22.01;72.96;102176.91;5049900;28;20086;-47
2023/08/22 00:51:59;;;;;;;7.43;3.47;;;;;;;22.03;73.16;102175.09;5049682;28;20067;-46
2023/08/22 00:54:29;;;;;;;4.75;3.05;;;;;;;22.05;72.96;102163.56;5048966;28;20044;-47
2023/08/22 00:56:55;;;;;;;6.47;3.20;;;;;;;22.08;73.32;102157.34;5049921;28;20050;-44
2023/08/22 00:59:21;;;;;;;6.75;3.40;;;;;;;22.11;73.41;102146.66;5049518;28;20121;-44
2023/08/22 01:01:47;;;;;;;6.05;3.10;;;;;;;22.07;73.81;102151.16;5049029;28;20115;-45
2023/08/22 01:04:12;;;;;;;5.43;3.42;;;;;;;22.03;72.89;102157.38;5048878;28;20055;-45
2023/08/22 01:06:46;;;;;;;6.93;3.30;;;;;;;22.03;73.44;102154.72;5050201;28;20506;-48
2023/08/22 01:09:27;;;;;;;7.15;3.45;;;;;;;22.04;73.31;102163.56;5049306;28;20033;-47
2023/08/22 01:11:59;;;;;;;7.70;3.22;;;;;;;22.01;73.75;102160.97;5049267;28;20028;-45
2023/08/22 01:14:27;;;;;;;6.45;3.10;;;;;;;22.04;73.50;102161.81;5048917;28;20462;-44
2023/08/22 01:16:53;;;;;;;5.40;3.22;;;;;;;21.97;73.46;102164.56;5049252;28;20033;-45
2023/08/22 01:19:18;;;;;;;6.95;3.35;;;;;;;21.98;73.35;102169.84;5049380;28;20800;-45
2023/08/22 01:21:53;;;;;;;6.22;3.22;;;;;;;21.90;73.07;102174.34;5049667;28;20075;-43
2023/08/22 01:24:19;;;;;;;7.43;3.15;;;;;;;21.78;72.97;102170.06;5048896;28;20037;-46
2023/08/22 01:26:46;;;;;;;6.57;2.97;;;;;;;21.75;73.02;102171.91;5049785;28;20430;-49
2023/08/22 01:29:18;;;;;;;5.15;3.03;;;;;;;21.71;73.04;102171.03;5048973;28;20064;-45
2023/08/22 01:32:04;;;;;;;6.90;3.20;;;;;;;21.64;72.87;102172.03;5049350;28;20033;-44
2023/08/22 01:34:32;;;;;;;6.75;3.20;;;;;;;21.59;72.95;102162.38;5048822;28;20041;-47
2023/08/22 01:36:59;;;;;;;7.25;3.28;;;;;;;21.55;73.62;102171.25;5049359;28;20091;-43
2023/08/22 01:39:27;;;;;;;6.18;3.03;;;;;;;21.51;73.15;102165.09;5049106;28;20130;-47
2023/08/22 01:41:55;;;;;;;7.07;2.90;;;;;;;21.52;73.17;102168.63;5049507;28;20047;-46
2023/08/22 01:44:20;;;;;;;5.80;2.78;;;;;;;21.49;73.44;102171.31;5048461;28;20067;-47
2023/08/22 01:46:46;;;;;;;6.28;2.95;;;;;;;21.48;73.82;102169.53;5048767;28;20124;-43
2023/08/22 01:49:11;;;;;;;10.98;2.83;;;;;;;21.48;73.61;102158.94;5048261;28;20420;-42
2023/08/22 01:51:37;;;;;;;5.72;2.80;;;;;;;21.49;73.50;102161.56;5050511;28;20063;-44
2023/08/22 01:54:02;;;;;;;4.90;2.70;;;;;;;21.51;73.30;102169.53;5047905;28;20139;-45
2023/08/22 01:56:27;;;;;;;4.57;2.85;;;;;;;21.44;73.38;102166.06;5048983;28;20062;-46
2023/08/22 01:58:53;;;;;;;6.93;3.05;;;;;;;21.27;74.28;102160.06;5049162;28;20047;-47
2023/08/22 02:01:19;;;;;;;4.95;2.80;;;;;;;21.35;73.98;102160.84;5048549;28;20576;-44
2023/08/22 02:03:46;;;;;;;5.95;2.60;;;;;;;21.33;73.86;102160.00;5049057;28;20044;-46
2023/08/22 02:06:11;;;;;;;4.95;2.80;;;;;;;21.33;73.73;102162.66;5048289;28;20477;-45
2023/08/22 02:08:39;;;;;;;5.03;2.58;;;;;;;21.30;73.38;102160.91;5049010;28;20033;-47
2023/08/22 02:11:04;;;;;;;4.40;2.75;;;;;;;21.26;73.13;102156.53;5048298;28;20047;-48
2023/08/22 02:13:30;;;;;;;5.85;3.13;;;;;;;21.23;72.97;102155.66;5049039;28;20112;-42
2023/08/22 02:15:55;;;;;;;5.80;2.97;;;;;;;21.20;73.42;102145.97;5048695;28;20051;-46
2023/08/22 02:18:20;;;;;;;6.60;2.88;;;;;;;21.15;73.69;102146.88;5048684;28;20033;-45
2023/08/22 02:20:51;;;;;;;5.07;2.70;;;;;;;21.13;73.53;102135.41;5048758;28;20060;-43
2023/08/22 02:23:16;;;;;;;5.50;3.00;;;;;;;21.11;73.95;102137.19;5048447;28;20444;-44
2023/08/22 02:25:41;;;;;;;4.75;2.90;;;;;;;21.11;73.86;102138.06;5048103;28;20113;-46
2023/08/22 02:28:07;;;;;;;4.95;2.70;;;;;;;21.13;73.93;102140.72;5049519;28;20128;-45
2023/08/22 02:30:33;;;;;;;5.82;2.70;;;;;;;21.13;73.86;102138.06;5052507;28;20067;-46
2023/08/22 02:32:59;;;;;;;5.45;2.65;;;;;;;21.11;74.26;102135.41;5052872;28;20123;-45
2023/08/22 02:35:24;;;;;;;7.18;2.90;;;;;;;21.12;74.20;102136.31;5051843;28;20113;-46
2023/08/22 02:37:50;;;;;;;6.18;2.90;;;;;;;21.14;74.66;102131.88;5052545;28;20135;-44
2023/08/22 02:40:16;;;;;;;5.82;2.85;;;;;;;21.14;74.44;102130.09;5052018;28;20167;-47
2023/08/22 02:42:41;;;;;;;4.80;3.05;;;;;;;21.15;74.32;102133.63;5052439;28;20518;-43
2023/08/22 02:45:07;;;;;;;5.95;3.00;;;;;;;21.13;74.18;102136.28;5051330;28;20037;-47
2023/08/22 02:47:32;;;;;;;5.53;3.00;;;;;;;21.01;74.24;102123.16;5052752;28;20454;-44
2023/08/22 02:49:58;;;;;;;6.28;2.78;;;;;;;21.05;74.12;102124.88;5052049;28;20037;-45
2023/08/22 02:52:24;;;;;;;5.57;3.10;;;;;;;21.02;74.14;102122.28;5051764;28;20099;-47
2023/08/22 02:54:50;;;;;;;6.00;2.92;;;;;;;20.99;73.74;102132.88;5051660;28;20037;-43
2023/08/22 02:57:15;;;;;;;5.05;2.85;;;;;;;20.98;74.02;102131.16;5051763;28;20430;-43
2023/08/22 02:59:41;;;;;;;4.97;2.80;;;;;;;20.98;74.17;102129.34;5052181;28;20510;-43
2023/08/22 03:02:06;;;;;;;6.95;2.80;;;;;;;20.97;73.83;102126.75;5050362;28;20360;-43
2023/08/22 03:04:33;;;;;;;5.57;2.90;;;;;;;20.95;74.22;102121.44;5050107;28;20502;-43
2023/08/22 03:06:58;;;;;;;3.97;2.90;;;;;;;20.93;74.59;102125.88;5052182;28;20052;-44
2023/08/22 03:09:24;;;;;;;6.00;2.90;;;;;;;20.96;74.34;102128.50;5051672;28;20037;-44
2023/08/22 03:11:49;;;;;;;6.10;2.90;;;;;;;21.01;74.43;102123.16;5051966;28;20041;-46
2023/08/22 03:14:15;;;;;;;6.95;3.15;;;;;;;20.97;74.78;102118.78;5050850;28;20041;-42
2023/08/22 03:16:40;;;;;;;7.25;3.30;;;;;;;21.03;74.22;102116.97;5051903;28;20033;-44
2023/08/22 03:19:06;;;;;;;6.78;3.13;;;;;;;21.02;74.75;102119.63;5051181;28;20582;-44
2023/08/22 03:21:31;;;;;;;8.00;3.15;;;;;;;21.06;74.62;102124.88;5051689;28;20551;-45
2023/08/22 03:23:56;;;;;;;8.38;3.10;;;;;;;21.09;74.08;102117.78;5050691;28;20076;-45
2023/08/22 03:26:22;;;;;;;7.22;3.47;;;;;;;21.06;74.17;102119.56;5050912;28;20116;-48
2023/08/22 03:28:47;;;;;;;5.78;3.20;;;;;;;21.13;73.97;102124.81;5051528;28;20132;-46
2023/08/22 03:31:12;;;;;;;5.95;3.10;;;;;;;21.13;74.26;102117.72;5051042;28;20037;-46
2023/08/22 03:33:38;;;;;;;5.50;2.92;;;;;;;21.19;74.10;102111.50;5051411;28;20028;-46
2023/08/22 03:36:03;;;;;;;8.20;3.33;;;;;;;21.19;74.17;102114.16;5050722;28;20036;-46
2023/08/22 03:38:29;;;;;;;8.05;3.15;;;;;;;21.18;74.10;102113.28;5049734;28;20037;-45
2023/08/22 03:40:55;;;;;;;6.53;2.80;;;;;;;21.18;73.69;102097.38;5051440;28;20033;-48
2023/08/22 03:43:21;;;;;;;7.45;3.35;;;;;;;21.23;73.65;102103.50;5050898;28;20037;-45
2023/08/22 03:45:47;;;;;;;5.53;3.25;;;;;;;21.21;73.61;102100.00;5049463;28;20451;-44
2023/08/22 03:48:12;;;;;;;7.07;3.08;;;;;;;21.18;73.69;102100.03;5051132;28;20430;-46
2023/08/22 03:50:39;;;;;;;5.82;3.53;;;;;;;21.19;73.95;102098.25;5051354;28;20039;-43
2023/08/22 03:53:05;;;;;;;6.53;3.15;;;;;;;21.24;73.61;102094.66;5050694;28;20052;-50
2023/08/22 03:55:30;;;;;;;8.30;3.70;;;;;;;21.21;74.03;102088.50;5050543;28;20082;-44
2023/08/22 03:57:58;;;;;;;8.60;3.63;;;;;;;21.24;73.91;102084.03;5051149;28;20412;-44
2023/08/22 04:00:23;;;;;;;7.20;3.38;;;;;;;21.28;73.88;102087.56;5050584;28;20033;-46
2023/08/22 04:02:53;;;;;;;9.05;3.47;;;;;;;21.27;73.63;102088.44;5050851;28;20414;-43
2023/08/22 04:05:18;;;;;;;6.32;3.30;;;;;;;21.28;73.62;102093.75;5048679;28;20037;-43
2023/08/22 04:07:44;;;;;;;5.78;3.30;;;;;;;21.16;73.94;102100.94;5049626;28;20025;-43
2023/08/22 04:10:09;;;;;;;7.13;3.17;;;;;;;21.25;73.26;102099.06;5050594;28;20041;-44
2023/08/22 04:12:34;;;;;;;6.32;3.40;;;;;;;21.17;73.50;102102.69;5051192;28;20087;-44
2023/08/22 04:15:00;;;;;;;7.07;3.38;;;;;;;21.17;73.60;102100.03;5050298;28;20510;-46
2023/08/22 04:17:25;;;;;;;7.95;3.70;;;;;;;21.04;73.98;102107.22;5050576;28;20037;-43
2023/08/22 04:19:50;;;;;;;7.00;3.42;;;;;;;21.01;74.15;102107.25;5050536;28;20033;-45
2023/08/22 04:22:16;;;;;;;6.18;3.38;;;;;;;21.02;73.90;102109.91;5048591;28;20108;-45
2023/08/22 04:24:41;;;;;;;6.03;3.20;;;;;;;21.02;73.63;102109.00;5049515;28;20033;-45
2023/08/22 04:27:06;;;;;;;6.45;3.10;;;;;;;21.00;73.34;102102.84;5049928;28;20111;-45
2023/08/22 04:29:32;;;;;;;6.57;3.20;;;;;;;21.01;73.40;102105.47;5050261;28;20064;-45
2023/08/22 04:31:58;;;;;;;7.20;3.53;;;;;;;20.99;73.77;102104.59;5050131;28;20052;-43
2023/08/22 04:34:23;;;;;;;7.45;3.80;;;;;;;21.03;74.03;102108.13;5049236;28;20033;-44
2023/08/22 04:36:49;;;;;;;6.63;3.30;;;;;;;21.06;74.19;102108.97;5050182;28;20087;-49
2023/08/22 04:39:14;;;;;;;9.35;3.85;;;;;;;21.09;74.09;102104.53;5049369;28;20095;-45
2023/08/22 04:41:39;;;;;;;7.97;3.80;;;;;;;21.12;74.15;102101.81;5050105;28;20056;-48
2023/08/22 04:44:05;;;;;;;7.45;3.20;;;;;;;21.14;74.20;102102.69;5049463;28;20064;-47
2023/08/22 04:46:30;;;;;;;6.82;3.90;;;;;;;21.17;74.12;102100.91;5048947;28;20033;-45
2023/08/22 04:48:55;;;;;;;7.75;3.67;;;;;;;21.24;73.72;102086.69;5049956;28;20407;-48
2023/08/22 04:51:21;;;;;;;8.02;3.60;;;;;;;21.25;73.30;102088.47;5048642;28;20071;-45
2023/08/22 04:53:46;;;;;;;7.45;3.65;;;;;;;21.28;73.12;102088.44;5048212;28;20045;-44
2023/08/22 04:56:12;;;;;;;6.30;3.70;;;;;;;21.26;73.23;102087.56;5049044;28;20125;-50
2023/08/22 04:58:37;;;;;;;8.20;3.60;;;;;;;21.29;72.81;102076.03;5049785;28;20523;-46
2023/08/22 05:01:02;;;;;;;8.57;3.60;;;;;;;21.32;73.07;102086.63;5049254;28;20044;-48
2023/08/22 05:03:28;;;;;;;6.40;3.63;;;;;;;21.20;72.96;102077.03;5049611;28;20484;-45
2023/08/22 05:05:53;;;;;;;8.32;3.72;;;;;;;21.29;73.13;102076.03;5049129;28;20037;-44
2023/08/22 05:08:19;;;;;;;9.02;3.78;;;;;;;21.35;72.78;102079.47;5049110;28;20063;-48
2023/08/22 05:10:44;;;;;;;9.48;3.70;;;;;;;21.43;72.89;102092.66;5049576;28;20029;-43
2023/08/22 05:13:09;;;;;;;7.15;3.30;;;;;;;21.50;72.49;102091.69;5049154;28;20068;-42
2023/08/22 05:15:35;;;;;;;9.05;4.15;;;;;;;21.32;73.30;102103.41;5048707;28;20033;-46
2023/08/22 05:18:00;;;;;;;12.07;4.07;;;;;;;21.25;73.72;102108.78;5049040;28;20052;-45
2023/08/22 05:20:25;;;;;;;6.35;3.22;;;;;;;21.47;72.88;102110.28;5049221;28;20055;-45
2023/08/22 05:22:51;;;;;;;7.70;3.38;;;;;;;21.60;72.64;102113.69;5049648;28;20041;-47
2023/08/22 05:25:17;;;;;;;8.32;4.05;;;;;;;21.68;72.82;102111.81;5048529;28;20048;-42
2023/08/22 05:27:42;;;;;;;7.80;3.83;;;;;;;21.74;72.45;102107.31;5049441;28;20040;-45
2023/08/22 05:30:07;;;;;;;6.30;3.30;;;;;;;21.85;72.26;102102.72;5046719;28;20044;-46
2023/08/22 05:32:33;;;;;;;7.95;3.63;;;;;;;21.92;72.17;102114.13;5049290;28;20044;-43
2023/08/22 05:34:58;;;;;;;7.93;4.00;;;;;;;21.94;71.78;102114.13;5048781;28;20040;-47
2023/08/22 05:37:24;;;;;;;11.32;4.43;;;;;;;21.98;71.71;102105.25;5048724;28;20140;-49
2023/08/22 05:39:50;;;;;;;8.07;4.35;;;;;;;21.98;71.29;102116.75;5049260;28;20053;-48
2023/08/22 05:42:15;;;;;;;7.07;4.10;;;;;;;22.09;71.12;102108.63;5048748;28;20064;-46
2023/08/22 05:44:40;;;;;;;10.55;4.47;;;;;;;22.11;71.74;102118.31;5047551;28;20037;-42
2023/08/22 05:47:07;;;;;;;7.40;4.50;;;;;;;22.32;71.32;102111.84;5049125;28;20033;-46
2023/08/22 05:49:33;;;;;;;14.82;4.95;;;;;;;22.39;70.17;102113.47;5050079;28;20125;-42
2023/08/22 05:52:03;;;;;;;8.00;4.47;;;;;;;22.66;70.45;102121.00;5049202;28;20127;-46
2023/08/22 05:54:28;;;;;;;8.90;4.55;;;;;;;22.93;69.37;102114.34;5047957;28;20032;-43
2023/08/22 05:56:54;;;;;;;7.38;4.25;;;;;;;23.10;68.80;102124.69;5048973;28;20044;-44
2023/08/22 05:59:19;;;;;;;8.98;4.82;;;;;;;23.21;68.21;102121.81;5048571;28;20044;-46
2023/08/22 06:01:44;;;;;;;9.52;4.40;;;;;;;23.41;67.75;102131.19;5049846;28;20534;-49
2023/08/22 06:04:10;;;;;;;9.35;5.03;;;;;;;23.58;67.30;102124.66;5050877;28;20041;-44
2023/08/22 06:06:35;;;;;;;10.80;4.93;;;;;;;23.42;66.62;102132.06;5052968;28;20021;-46
2023/08/22 06:09:00;;;;;;;8.70;4.72;;;;;;;23.48;67.00;102125.75;5052369;28;20041;-45
2023/08/22 06:11:26;;;;;;;9.43;4.72;;;;;;;23.57;66.49;102126.44;5052554;28;20104;-45
2023/08/22 06:13:51;;;;;;;9.23;4.90;;;;;;;23.51;66.54;102128.34;5052552;28;20564;-47
2023/08/22 06:16:16;;;;;;;12.65;5.38;;;;;;;23.32;67.17;102117.16;5051857;28;20128;-45
2023/08/22 06:18:42;;;;;;;11.13;5.40;;;;;;;23.20;67.75;102115.63;5052838;28;20040;-45
2023/08/22 06:21:07;;;;;;;10.60;5.50;;;;;;;23.18;67.88;102119.19;5052052;28;20033;-44
2023/08/22 06:23:32;;;;;;;12.50;5.60;;;;;;;22.99;68.75;102118.69;5052600;28;20033;-44
2023/08/22 06:25:58;;;;;;;10.55;5.40;;;;;;;23.13;70.32;102113.97;5052100;28;20051;-45
2023/08/22 06:28:23;;;;;;;10.32;5.03;;;;;;;23.96;69.80;102118.53;5052021;28;20079;-46
2023/08/22 06:30:48;;;;;;;12.23;5.30;;;;;;;24.92;65.59;102117.09;5052599;28;20088;-43
2023/08/22 06:33:15;;;;;;;10.48;5.32;;;;;;;26.36;60.17;102110.19;5052196;28;20053;-45
2023/08/22 06:35:45;;;;;;;12.18;6.32;;;;;;;27.24;54.22;102111.63;5051843;28;20499;-48
2023/08/22 06:38:10;;;;;;;11.13;6.65;;;;;;;28.17;53.03;102104.50;5051782;28;20045;-47
2023/08/22 06:40:36;;;;;;;15.40;6.90;;;;;;;28.13;51.38;102116.28;5051946;28;20553;-48
2023/08/22 06:43:01;;;;;;;12.90;6.95;;;;;;;28.07;52.67;102119.16;5051889;28;20045;-46
2023/08/22 06:45:26;;;;;;;15.25;6.90;;;;;;;28.65;50.98;102124.88;5050150;28;20029;-45
2023/08/22 06:47:52;;;;;;;13.10;7.35;;;;;;;28.90;48.93;102122.91;5052585;28;20132;-47
2023/08/22 06:50:17;;;;;;;12.98;7.32;;;;;;;28.20;51.73;102133.00;5051748;28;20521;-44
2023/08/22 06:52:42;;;;;;;15.18;7.43;;;;;;;28.36;53.30;102130.56;5052214;28;20082;-49
2023/08/22 06:55:08;;;;;;;15.55;7.10;;;;;;;28.13;52.86;102135.03;5051020;28;20040;-45
2023/08/22 06:57:33;;;;;;;14.75;6.97;;;;;;;28.06;52.62;102125.44;5051923;28;20432;-48
2023/08/22 06:59:59;;;;;;;13.15;7.65;;;;;;;27.62;53.78;102129.88;5051600;28;20088;-47
2023/08/22 07:02:24;;;;;;;17.90;7.70;;;;;;;27.99;52.79;102129.34;5051457;28;20029;-46
2023/08/22 07:04:50;;;;;;;15.32;8.27;;;;;;;27.61;54.32;102130.81;5051303;28;20561;-44
2023/08/22 07:07:15;;;;;;;15.10;7.30;;;;;;;27.99;53.45;102133.81;5051435;28;20059;-50
2023/08/22 07:09:40;;;;;;;14.32;7.78;;;;;;;27.65;55.36;102143.16;5051914;28;20150;-43
2023/08/22 07:12:06;;;;;;;12.35;7.30;;;;;;;28.09;53.58;102145.91;5051364;28;20372;-48
2023/08/22 07:14:32;;;;;;;14.02;7.43;;;;;;;28.07;52.89;102151.34;5049961;28;20044;-45
2023/08/22 07:16:57;;;;;;;14.32;7.78;;;;;;;27.76;54.46;102158.81;5051673;28;20102;-44
2023/08/22 07:19:22;;;;;;;14.30;7.95;;;;;;;26.92;56.51;102161.81;5051054;28;20039;-44
2023/08/22 07:21:48;;;;;;;15.88;8.50;;;;;;;26.67;57.43;102160.88;5051635;28;20468;-43
2023/08/22 07:24:14;;;;;;;16.45;8.38;;;;;;;25.21;62.88;102170.56;5050715;28;20033;-45
2023/08/22 07:26:40;;;;;;;17.17;8.63;;;;;;;24.95;64.41;102168.56;5051635;28;20021;-44
2023/08/22 07:29:05;;;;;;;16.75;8.73;;;;;;;25.36;62.80;102169.28;5050924;28;20075;-45
2023/08/22 07:31:30;;;;;;;16.48;7.90;;;;;;;25.42;63.25;102172.66;5051330;28;20032;-48
2023/08/22 07:33:56;;;;;;;17.92;8.40;;;;;;;25.38;62.97;102172.75;5051311;28;20049;-45
2023/08/22 07:36:21;;;;;;;17.60;8.20;;;;;;;25.61;62.88;102173.06;5050320;28;20171;-48
2023/08/22 07:38:47;;;;;;;17.00;8.20;;;;;;;25.88;62.11;102176.69;5051292;28;20515;-47
2023/08/22 07:41:12;;;;;;;15.77;7.20;;;;;;;26.50;60.73;102169.44;5050844;28;20079;-46
2023/08/22 07:43:38;;;;;;;17.90;7.13;;;;;;;27.05;57.89;102170.31;5051833;28;20106;-44
2023/08/22 07:46:03;;;;;;;12.68;6.28;;;;;;;27.80;56.36;102169.38;5050576;28;20032;-48
2023/08/22 07:48:28;;;;;;;12.82;6.78;;;;;;;27.47;56.19;102170.59;5051358;28;20028;-48
2023/08/22 07:50:57;;;;;;;14.68;7.00;;;;;;;26.92;57.59;102172.53;5050980;28;20036;-48
2023/08/22 07:53:22;;;;;;;13.23;6.32;;;;;;;27.45;55.95;102172.44;5050175;28;20052;-49
2023/08/22 07:55:47;;;;;;;11.48;5.95;;;;;;;26.81;57.17;102169.31;5050614;28;20115;-48
2023/08/22 07:58:15;;;;;;;14.63;5.95;;;;;;;27.19;56.21;102169.84;5050405;28;20041;-47
2023/08/22 08:00:40;;;;;;;11.82;5.28;;;;;;;26.97;58.14;102151.84;5050712;28;20025;-44
2023/08/22 08:03:06;;;;;;;13.85;6.28;;;;;;;26.94;58.37;102162.66;5050414;28;20114;-49
2023/08/22 08:05:32;;;;;;;13.65;6.43;;;;;;;26.79;58.93;102155.09;5050217;28;20032;-43
2023/08/22 08:07:57;;;;;;;12.57;6.00;;;;;;;27.48;57.57;102158.06;5050776;28;20402;-45
2023/08/22 08:10:22;;;;;;;16.50;6.45;;;;;;;27.17;57.75;102155.63;5050296;28;20028;-45
2023/08/22 08:12:48;;;;;;;11.20;6.20;;;;;;;26.57;59.62;102156.75;5050660;28;20037;-42
2023/08/22 08:15:13;;;;;;;13.07;5.90;;;;;;;26.51;61.40;102162.31;5049877;28;20041;-48
2023/08/22 08:17:38;;;;;;;10.73;4.55;;;;;;;26.76;59.95;102165.03;5050656;28;20087;-50
2023/08/22 08:20:05;;;;;;;11.15;5.35;;;;;;;26.91;58.74;102161.88;5049774;28;20039;-46
2023/08/22 08:22:30;;;;;;;9.82;4.50;;;;;;;27.29;57.26;102161.41;5050410;28;20037;-49
2023/08/22 08:24:56;;;;;;;12.60;4.78;;;;;;;27.33;57.71;102157.69;5049824;28;20029;-49
2023/08/22 08:27:21;;;;;;;10.48;4.82;;;;;;;27.21;57.25;102165.28;5049787;28;20035;-49
2023/08/22 08:29:47;;;;;;;9.05;4.50;;;;;;;27.37;57.60;102163.81;5050278;28;20094;-47
2023/08/22 08:32:12;;;;;;;10.82;4.18;;;;;;;27.50;56.44;102166.94;5050007;28;20490;-44
2023/08/22 08:34:37;;;;;;;12.00;3.65;;;;;;;27.88;55.10;102165.50;5049705;28;20040;-47
2023/08/22 08:37:04;;;;;;;10.07;4.07;;;;;;;27.25;55.84;102164.25;5049866;28;20029;-45
2023/08/22 08:39:29;;;;;;;12.38;3.60;;;;;;;26.76;57.50;102165.03;5050435;28;20120;-45
2023/08/22 08:42:06;;;;;;;7.88;3.50;;;;;;;26.58;58.19;102156.72;5050045;28;20573;-43
2023/08/22 08:44:37;;;;;;;9.00;3.00;;;;;;;26.79;56.90;102154.22;5049178;28;20032;-46
2023/08/22 08:47:03;;;;;;;7.30;2.63;;;;;;;27.37;56.43;102164.69;5049480;28;20036;-44
2023/08/22 08:49:32;;;;;;;10.07;2.58;;;;;;;27.31;55.45;102164.91;5049881;28;20033;-45
2023/08/22 08:52:02;;;;;;;7.05;2.55;;;;;;;27.28;54.78;102173.03;5049671;28;20480;-47
2023/08/22 08:54:28;;;;;;;6.07;2.60;;;;;;;26.98;54.90;102180.34;5048587;28;20086;-48
2023/08/22 08:56:54;;;;;;;5.47;2.50;;;;;;;26.92;55.70;102177.00;5050037;28;20064;-49
2023/08/22 08:59:19;;;;;;;7.88;2.70;;;;;;;26.60;57.28;102184.25;5049110;28;20163;-44
2023/08/22 09:01:46;;;;;;;6.63;2.50;;;;;;;27.24;53.97;102176.78;5049726;28;20556;-48
2023/08/22 09:04:11;;;;;;;6.78;2.60;;;;;;;26.33;56.24;102186.97;5048759;28;20543;-45
2023/08/22 09:06:37;;;;;;;6.07;2.30;;;;;;;26.44;56.00;102187.50;5050003;28;20116;-48
2023/08/22 09:09:04;;;;;;;9.98;2.30;;;;;;;26.73;54.62;102184.75;5049269;28;20119;-48
2023/08/22 09:11:30;;;;;;;7.70;2.40;;;;;;;26.64;54.88;102185.06;5050040;28;20028;-45
2023/08/22 09:13:56;;;;;;;5.85;2.15;;;;;;;26.74;55.38;102170.44;5049634;28;20037;-51
2023/08/22 09:16:26;;;;;;;8.32;2.13;;;;;;;26.84;54.06;102179.03;5048620;28;20033;-46
2023/08/22 09:18:52;;;;;;;8.55;2.22;;;;;;;27.04;53.36;102172.09;5049503;28;20123;-47
2023/08/22 09:21:17;;;;;;;9.90;2.17;;;;;;;27.32;52.53;102174.72;5049098;28;20111;-51
2023/08/22 09:23:43;;;;;;;5.95;2.38;;;;;;;27.18;54.25;102178.78;5049420;28;20033;-45
2023/08/22 09:26:11;;;;;;;6.30;2.25;;;;;;;26.76;54.79;102178.44;5048471;28;20037;-50
2023/08/22 09:28:40;;;;;;;7.05;2.33;;;;;;;26.88;53.61;102172.66;5049300;28;20041;-44
2023/08/22 09:31:06;;;;;;;6.82;2.50;;;;;;;26.50;56.12;102184.63;5048777;28;20524;-47
2023/08/22 09:33:45;;;;;;;10.55;2.60;;;;;;;26.00;58.34;102189.69;5049322;28;20037;-43
2023/08/22 09:36:10;;;;;;;8.60;2.53;;;;;;;26.76;56.65;102181.97;5048462;28;20033;-44
2023/08/22 09:38:56;;;;;;;7.97;2.88;;;;;;;27.14;53.78;102193.22;5047969;28;20060;-48
2023/08/22 09:41:23;;;;;;;7.68;2.85;;;;;;;26.53;57.20;102195.25;5048724;28;20503;-48
2023/08/22 09:43:53;;;;;;;7.13;2.78;;;;;;;26.95;56.55;102193.84;5049178;28;20040;-44
2023/08/22 09:46:19;;;;;;;8.85;2.33;;;;;;;26.91;55.13;102194.88;5048221;28;20029;-45
2023/08/22 09:48:47;;;;;;;9.15;2.28;;;;;;;26.75;54.42;102192.72;5049392;28;20515;-49
2023/08/22 09:51:17;;;;;;;7.20;2.80;;;;;;;26.32;56.40;102194.09;5048503;28;20044;-45
2023/08/22 09:53:43;;;;;;;5.97;2.35;;;;;;;26.46;55.69;102199.03;5049096;28;20087;-47
2023/08/22 09:56:09;;;;;;;7.88;2.53;;;;;;;26.14;56.23;102199.97;5048401;28;20033;-48
2023/08/22 09:58:35;;;;;;;11.13;2.33;;;;;;;26.16;56.32;102198.16;5049273;28;20040;-46
2023/08/22 10:01:02;;;;;;;6.65;2.33;;;;;;;26.45;56.16;102190.13;5048479;28;20040;-45
2023/08/22 10:03:29;;;;;;;4.30;2.05;;;;;;;26.41;55.53;102187.59;5049072;28;20041;-48
2023/08/22 10:05:55;;;;;;;6.85;2.08;;;;;;;26.58;54.27;102183.47;5048469;28;20033;-44
2023/08/22 10:08:20;;;;;;;6.07;2.13;;;;;;;26.83;54.79;102186.19;5048743;28;20045;-48
2023/08/22 10:10:47;;;;;;;6.13;2.35;;;;;;;26.49;55.38;102190.88;5047587;28;20084;-46
2023/08/22 10:13:15;;;;;;;5.03;2.20;;;;;;;26.81;54.44;102192.53;5048499;28;20044;-43
2023/08/22 10:15:41;;;;;;;8.05;2.38;;;;;;;26.93;55.06;102187.66;5048142;28;20495;-45
2023/08/22 10:18:07;;;;;;;6.47;2.33;;;;;;;26.98;55.97;102190.19;5048514;28;20033;-44
2023/08/22 10:20:37;;;;;;;8.27;2.60;;;;;;;26.23;58.24;102197.91;5048871;28;20032;-48
2023/08/22 10:23:03;;;;;;;6.82;2.13;;;;;;;26.68;57.99;102194.72;5048136;28;20052;-45
2023/08/22 10:25:55;;;;;;;7.53;2.53;;;;;;;26.72;56.35;102198.16;5048110;28;20110;-47
2023/08/22 10:28:20;;;;;;;8.38;2.40;;;;;;;26.91;56.38;102189.50;5047018;28;20048;-49
2023/08/22 10:31:05;;;;;;;8.68;2.70;;;;;;;26.84;57.56;102198.63;5048661;28;20029;-45
2023/08/22 10:33:31;;;;;;;10.30;2.70;;;;;;;26.85;57.08;102192.34;5048396;28;20037;-45
2023/08/22 10:36:16;;;;;;;9.98;2.15;;;;;;;27.11;55.60;102202.22;5048354;28;20123;-47
2023/08/22 10:38:53;;;;;;;7.75;2.28;;;;;;;26.43;58.16;102210.69;5048240;28;20037;-44
2023/08/22 10:41:53;;;;;;;5.90;2.40;;;;;;;26.64;56.43;102191.28;5048205;28;20112;-46
2023/08/22 10:44:26;;;;;;;7.00;2.30;;;;;;;25.82;59.40;102203.59;5047702;28;20041;-45
2023/08/22 10:47:14;;;;;;;7.15;2.45;;;;;;;26.59;56.86;102195.88;5048740;28;20041;-48
2023/08/22 10:49:40;;;;;;;6.30;2.03;;;;;;;25.82;57.84;102199.13;5050582;28;20468;-50
2023/08/22 10:52:06;;;;;;;6.72;2.17;;;;;;;26.16;56.06;102204.38;5051722;28;20116;-46
2023/08/22 10:54:51;;;;;;;6.85;2.30;;;;;;;25.95;58.35;102204.13;5051430;28;20029;-50
2023/08/22 10:57:17;;;;;;;5.95;2.20;;;;;;;26.19;58.02;102206.94;5051907;28;20037;-47
2023/08/22 11:00:00;;;;;;;7.53;2.40;;;;;;;26.11;58.56;102206.28;5052128;28;20079;-46
2023/08/22 11:02:33;;;;;;;5.63;2.10;;;;;;;26.33;58.27;102208.34;5052247;28;20059;-49
2023/08/22 11:05:00;;;;;;;8.67;2.50;;;;;;;26.61;56.32;102201.19;5051949;28;20037;-46
2023/08/22 11:07:27;;;;;;;6.80;2.30;;;;;;;27.03;56.42;102196.25;5052044;28;20602;-43
2023/08/22 11:09:56;;;;;;;5.88;2.00;;;;;;;27.35;54.41;102192.44;5051881;28;20047;-48
2023/08/22 11:12:23;;;;;;;9.35;2.10;;;;;;;27.18;54.98;102192.19;5049871;28;20507;-48
2023/08/22 11:14:51;;;;;;;6.95;2.08;;;;;;;26.95;55.17;102201.00;5051839;28;20033;-47
2023/08/22 11:17:18;;;;;;;5.13;1.90;;;;;;;26.50;55.69;102208.69;5052443;28;20044;-45
2023/08/22 11:19:44;;;;;;;7.22;2.25;;;;;;;26.64;55.85;102212.69;5053102;28;20403;-45
2023/08/22 11:22:10;;;;;;;6.72;2.60;;;;;;;26.27;56.02;102206.75;5052485;28;20040;-44